createdAt,value
2023-05-19T00:03:21.912Z,94609.44
2023-05-19T00:18:23.918Z,94603.69
2023-05-19T00:33:25.798Z,94591.53
2023-05-19T00:48:27.797Z,94587.63
2023-05-19T01:03:32.096Z,94582.84
2023-05-19T01:18:56.314Z,94588.28
2023-05-19T01:34:00.454Z,94588.59
2023-05-19T01:49:02.308Z,94592.84
2023-05-19T02:04:10.109Z,94602.34
2023-05-19T02:19:32.971Z,94610.09
2023-05-19T02:34:34.688Z,94597.72
2023-05-19T02:49:36.437Z,94615.22
2023-05-19T03:04:41.766Z,94615.91
2023-05-19T03:19:43.600Z,94617.38
2023-05-19T03:34:45.512Z,94622.22
2023-05-19T03:49:47.252Z,94618.81
2023-05-19T04:04:49.036Z,94632.56
2023-05-19T04:19:51.087Z,94629.31
2023-05-19T04:34:52.933Z,94655.72
2023-05-19T04:49:55.790Z,94657.44
2023-05-19T05:04:58.154Z,94664.16
2023-05-19T05:20:00.237Z,94660.69
2023-05-19T05:35:02.179Z,94653.56
2023-05-19T05:50:05.541Z,94665.53
2023-05-19T06:05:07.586Z,94681.75
2023-05-19T06:20:10.267Z,94679.69
2023-05-19T06:35:11.981Z,94682.59
2023-05-19T06:50:13.956Z,94688.31
2023-05-19T07:05:15.701Z,94701.09
2023-05-19T07:20:18.081Z,94713.34
2023-05-19T07:35:22.695Z,94707.81
2023-05-19T07:50:24.617Z,94703.69
2023-05-19T08:05:26.733Z,94690.16
2023-05-19T08:20:28.567Z,94699.16
2023-05-19T08:35:30.443Z,94695.66
2023-05-19T08:50:39.282Z,94687.03
2023-05-19T09:05:41.374Z,94680.94
2023-05-19T09:20:45.068Z,94671.31
2023-05-19T09:35:47.529Z,94666.44
2023-05-19T09:50:51.812Z,94664.22
2023-05-19T10:05:53.944Z,94648.94
2023-05-19T10:20:58.019Z,94644.41
2023-05-19T10:36:14.554Z,94630.19
2023-05-19T10:51:16.300Z,94622.50
2023-05-19T11:06:18.085Z,94619.44
2023-05-19T11:21:20.654Z,94607.75
2023-05-19T11:36:23.396Z,94601.16
2023-05-19T11:51:25.332Z,94599.41
2023-05-19T12:06:28.370Z,94649.75
2023-05-19T12:21:34.214Z,94678.16
2023-05-19T12:36:37.205Z,94674.00
2023-05-19T12:51:38.976Z,94642.78
2023-05-19T13:06:41.861Z,94616.88
2023-05-19T13:21:44.146Z,94604.78
2023-05-19T13:36:48.274Z,94603.19
2023-05-19T13:51:50.136Z,94604.38
2023-05-19T14:06:52.026Z,94601.28
2023-05-19T14:21:54.159Z,94602.91
2023-05-19T14:36:55.897Z,94606.94
2023-05-19T14:51:57.695Z,94612.91
2023-05-19T15:07:09.776Z,94619.13
2023-05-19T15:22:12.677Z,94621.09
2023-05-19T15:37:14.437Z,94615.09
2023-05-19T15:52:16.266Z,94628.59
2023-05-19T16:07:18.640Z,94622.00
2023-05-19T16:22:24.626Z,94630.72
2023-05-19T16:37:26.693Z,94631.94
2023-05-19T16:52:28.603Z,94628.38
2023-05-19T17:07:30.658Z,94636.81
2023-05-19T17:22:32.524Z,94644.63
2023-05-19T17:37:34.421Z,94658.03
2023-05-19T17:52:36.671Z,94659.03
2023-05-19T18:07:41.371Z,94672.00
2023-05-19T18:22:43.478Z,94692.69
2023-05-19T18:37:45.289Z,94698.78
2023-05-19T18:52:47.111Z,94710.41
2023-05-19T19:07:49.486Z,94727.78
2023-05-19T19:22:52.203Z,94729.59
2023-05-19T19:37:54.154Z,94732.91
2023-05-19T19:52:56.099Z,94737.53
2023-05-19T20:07:57.852Z,94746.41
2023-05-19T20:22:59.709Z,94767.56
2023-05-19T20:38:01.623Z,94771.09
2023-05-19T20:53:03.620Z,94795.88
2023-05-19T21:08:05.596Z,94778.56
2023-05-19T21:23:07.389Z,94764.44
2023-05-19T21:38:22.704Z,94773.44
2023-05-19T21:53:25.962Z,94764.09
2023-05-19T22:08:27.918Z,94770.16
2023-05-19T22:23:29.859Z,94748.53
2023-05-19T22:38:31.639Z,94742.59
2023-05-19T22:53:33.425Z,94764.44
2023-05-19T23:08:35.207Z,94750.91
2023-05-19T23:23:37.036Z,94729.81
2023-05-19T23:38:39.064Z,94714.25
2023-05-19T23:53:40.852Z,94702.47
